Time;durP1;ratioP1;P1;durP2;ratioP2;P2;SDS_P1;SDS_P2;PMS_P1;PMS_P2;Temp;Humidity;BMP_temperature;BMP_pressure;BME280_temperature;BME280_humidity;BME280_pressure;Samples;Min_cycle;Max_cycle;Signal;HPM_P1;HPM_P2
2023/05/12 00:00:21;;;;;;;95.47;33.20;;;14.40;99.90;;;;;;4919909;29;20165;-84
2023/05/12 00:02:47;;;;;;;91.57;32.53;;;14.40;99.90;;;;;;4919781;29;20224;-84
2023/05/12 00:05:13;;;;;;;95.47;32.40;;;14.30;99.90;;;;;;4919801;29;20188;-84
2023/05/12 00:07:38;;;;;;;88.67;30.60;;;14.40;99.90;;;;;;4903229;29;20249;-83
2023/05/12 00:10:05;;;;;;;97.30;33.00;;;14.30;99.90;;;;;;4919792;29;20177;-84
2023/05/12 00:12:31;;;;;;;93.70;32.37;;;14.40;99.90;;;;;;4919633;29;20220;-84
2023/05/12 00:14:56;;;;;;;91.23;33.40;;;14.40;99.90;;;;;;4919656;29;20413;-84
2023/05/12 00:17:22;;;;;;;95.27;34.07;;;14.40;99.90;;;;;;4919778;29;20459;-85
2023/05/12 00:19:49;;;;;;;92.03;31.63;;;14.40;99.90;;;;;;4902978;29;20180;-85
2023/05/12 00:22:15;;;;;;;92.97;34.10;;;14.50;99.90;;;;;;4903291;29;20173;-85
2023/05/12 00:24:41;;;;;;;91.70;31.00;;;14.40;99.90;;;;;;4902634;29;20948;-84
2023/05/12 00:27:07;;;;;;;93.40;31.20;;;14.40;99.90;;;;;;4919596;29;20437;-84
2023/05/12 00:29:33;;;;;;;92.70;30.70;;;14.40;99.90;;;;;;4920051;29;20519;-85
2023/05/12 00:31:59;;;;;;;93.00;32.63;;;14.40;99.90;;;;;;4902661;29;20180;-84
2023/05/12 00:34:26;;;;;;;93.37;30.40;;;14.40;99.90;;;;;;4919607;29;20409;-85
2023/05/12 00:36:52;;;;;;;89.00;29.67;;;14.40;99.90;;;;;;4919551;29;20221;-84
2023/05/12 00:39:17;;;;;;;88.77;30.37;;;14.40;99.90;;;;;;4902583;29;20419;-84
2023/05/12 00:41:43;;;;;;;89.57;29.73;;;14.40;99.90;;;;;;4902644;29;20834;-84
2023/05/12 00:44:09;;;;;;;92.03;28.47;;;14.40;99.90;;;;;;4919822;29;20206;-85
2023/05/12 00:46:35;;;;;;;94.20;31.27;;;14.40;99.90;;;;;;4919480;29;20221;-84
2023/05/12 00:49:01;;;;;;;93.37;33.50;;;14.30;99.90;;;;;;4919348;29;20225;-84
2023/05/12 00:51:27;;;;;;;88.00;32.13;;;14.40;99.90;;;;;;4902501;29;20414;-84
2023/05/12 00:53:54;;;;;;;89.37;31.37;;;14.40;99.90;;;;;;4919490;29;20429;-84
2023/05/12 00:56:20;;;;;;;88.57;32.10;;;14.40;99.90;;;;;;4919600;29;20192;-85
2023/05/12 00:58:46;;;;;;;89.20;33.10;;;14.40;99.90;;;;;;4919861;29;20421;-85
2023/05/12 01:01:12;;;;;;;90.03;28.27;;;14.40;99.90;;;;;;4919138;29;20900;-84
2023/05/12 01:03:38;;;;;;;90.13;30.77;;;14.30;99.90;;;;;;4919698;29;20398;-83
2023/05/12 01:06:16;;;;;;;86.20;29.10;;;14.30;99.90;;;;;;4919179;29;20436;-84
2023/05/12 01:08:43;;;;;;;89.30;29.17;;;14.30;99.90;;;;;;4902186;29;20667;-83
2023/05/12 01:11:09;;;;;;;89.80;28.37;;;14.40;99.90;;;;;;4919096;29;20923;-83
2023/05/12 01:13:35;;;;;;;90.83;27.37;;;14.40;99.90;;;;;;4919306;29;20484;-83
2023/05/12 01:16:02;;;;;;;85.43;28.00;;;14.40;99.90;;;;;;4902094;29;20200;-84
2023/05/12 01:18:29;;;;;;;90.77;28.60;;;14.40;99.90;;;;;;4918959;29;20165;-83
2023/05/12 01:20:56;;;;;;;92.40;29.00;;;14.30;99.90;;;;;;4901821;29;20440;-83
2023/05/12 01:23:28;;;;;;;90.23;29.67;;;14.20;99.90;;;;;;4901982;29;20493;-84
2023/05/12 01:26:01;;;;;;;88.00;27.27;;;14.30;99.90;;;;;;4901726;29;20533;-84
2023/05/12 01:28:27;;;;;;;99.27;31.10;;;14.30;99.90;;;;;;4918741;29;20440;-85
2023/05/12 01:30:53;;;;;;;92.20;29.73;;;14.30;99.90;;;;;;4901800;29;20405;-83
2023/05/12 01:33:19;;;;;;;91.97;32.93;;;14.30;99.90;;;;;;4918796;29;20169;-83
2023/05/12 01:35:46;;;;;;;95.20;29.90;;;14.30;99.90;;;;;;4918182;29;20428;-84
2023/05/12 01:38:11;;;;;;;90.37;28.83;;;14.30;99.90;;;;;;4918593;29;20444;-83
2023/05/12 01:40:37;;;;;;;93.10;31.07;;;14.30;99.90;;;;;;4918358;29;20419;-83
2023/05/12 01:43:03;;;;;;;93.00;31.97;;;14.30;99.90;;;;;;4920335;29;20161;-84
2023/05/12 01:45:29;;;;;;;94.33;30.13;;;14.30;99.90;;;;;;4905201;29;20179;-83
2023/05/12 01:47:55;;;;;;;89.60;28.43;;;14.30;99.90;;;;;;4905175;29;20418;-85
2023/05/12 01:50:20;;;;;;;92.17;29.67;;;14.30;99.90;;;;;;4922145;29;20496;-83
2023/05/12 01:52:46;;;;;;;89.93;27.70;;;14.30;99.90;;;;;;4905631;29;20177;-83
2023/05/12 01:55:12;;;;;;;96.03;29.17;;;14.30;99.90;;;;;;4921961;29;20193;-84
2023/05/12 01:57:37;;;;;;;88.77;29.60;;;14.20;99.90;;;;;;4904931;29;20196;-85
2023/05/12 02:00:03;;;;;;;92.37;31.27;;;14.20;99.90;;;;;;4907914;29;20169;-85
2023/05/12 02:02:30;;;;;;;94.23;34.50;;;14.20;99.90;;;;;;4924546;29;20173;-84
2023/05/12 02:04:56;;;;;;;89.80;30.70;;;14.10;99.90;;;;;;4924475;29;20401;-84
2023/05/12 02:07:21;;;;;;;91.73;27.97;;;14.20;99.90;;;;;;4907018;29;20432;-84
2023/05/12 02:09:47;;;;;;;94.20;32.50;;;14.30;99.90;;;;;;4906908;29;20541;-84
2023/05/12 02:12:16;;;;;;;96.87;36.03;;;14.30;99.90;;;;;;4907422;29;20212;-84
2023/05/12 02:14:41;;;;;;;91.40;33.27;;;14.20;99.90;;;;;;4924261;29;20533;-85
2023/05/12 02:17:07;;;;;;;91.07;35.67;;;14.30;99.90;;;;;;4907711;29;20456;-85
2023/05/12 02:19:33;;;;;;;90.13;29.70;;;14.30;99.90;;;;;;4907641;29;20176;-85
2023/05/12 02:21:58;;;;;;;90.23;34.13;;;14.30;99.90;;;;;;4925079;29;20633;-85
2023/05/12 02:24:24;;;;;;;89.37;27.60;;;14.30;99.90;;;;;;4925113;29;20264;-84
2023/05/12 02:26:50;;;;;;;89.17;28.33;;;14.30;99.90;;;;;;4907374;29;20280;-84
2023/05/12 02:29:15;;;;;;;87.00;29.60;;;14.30;99.90;;;;;;4925112;29;20672;-85
2023/05/12 02:31:41;;;;;;;86.73;30.77;;;14.30;99.90;;;;;;4925264;29;20180;-85
2023/05/12 02:34:07;;;;;;;85.00;29.17;;;14.30;99.90;;;;;;4907743;29;20181;-85
2023/05/12 02:36:32;;;;;;;85.00;28.80;;;14.30;99.90;;;;;;4924742;29;20240;-85
2023/05/12 02:38:58;;;;;;;90.37;26.57;;;14.30;99.90;;;;;;4924722;29;20180;-85
2023/05/12 02:41:23;;;;;;;88.03;30.40;;;14.30;99.90;;;;;;4925380;29;20169;-84
2023/05/12 02:43:49;;;;;;;87.87;29.10;;;14.30;99.90;;;;;;4907996;29;20645;-85
2023/05/12 02:46:15;;;;;;;85.13;26.27;;;14.20;99.90;;;;;;4924216;29;20189;-85
2023/05/12 02:48:41;;;;;;;81.30;24.50;;;14.30;99.90;;;;;;4924949;29;20180;-85
2023/05/12 02:51:06;;;;;;;87.93;29.63;;;14.30;99.90;;;;;;4925224;29;20664;-85
2023/05/12 02:53:32;;;;;;;87.10;26.50;;;14.20;99.90;;;;;;4907874;29;20184;-85
2023/05/12 02:55:58;;;;;;;81.97;26.30;;;14.20;99.90;;;;;;4923704;29;20264;-85
2023/05/12 02:58:23;;;;;;;83.77;28.50;;;14.20;99.90;;;;;;4924283;29;20201;-85
2023/05/12 03:00:49;;;;;;;84.03;27.93;;;14.20;99.90;;;;;;4906910;29;20652;-85
2023/05/12 03:03:14;;;;;;;86.27;29.40;;;14.20;99.90;;;;;;4924294;29;20253;-85
2023/05/12 03:05:40;;;;;;;84.60;25.43;;;14.20;99.90;;;;;;4924620;29;20641;-86
2023/05/12 03:08:06;;;;;;;83.00;25.27;;;14.20;99.90;;;;;;4924051;29;20205;-84
2023/05/12 03:10:32;;;;;;;87.93;25.97;;;14.20;99.90;;;;;;4908039;29;20174;-85
2023/05/12 03:12:57;;;;;;;83.97;23.57;;;14.20;99.90;;;;;;4924463;29;20411;-86
2023/05/12 03:15:23;;;;;;;84.67;26.93;;;14.20;99.90;;;;;;4923861;29;20165;-84
2023/05/12 03:17:49;;;;;;;87.07;28.17;;;14.20;99.90;;;;;;4906851;29;20268;-83
2023/05/12 03:20:15;;;;;;;85.20;26.50;;;14.20;99.90;;;;;;4903623;29;20177;-83
2023/05/12 03:22:41;;;;;;;89.93;30.90;;;14.20;99.90;;;;;;4903808;29;20299;-83
2023/05/12 03:25:11;;;;;;;84.27;25.53;;;14.20;99.90;;;;;;4990730;23;20480;-81
2023/05/12 03:27:37;;;;;;;89.37;26.60;;;14.20;99.90;;;;;;4919456;29;20181;-81
2023/05/12 03:30:04;;;;;;;83.97;25.47;;;14.20;99.90;;;;;;4918955;29;20505;-81
2023/05/12 03:32:30;;;;;;;87.47;30.37;;;14.20;99.90;;;;;;4919424;29;20653;-79
2023/05/12 03:34:56;;;;;;;84.67;29.60;;;14.10;99.90;;;;;;4902504;29;20413;-79
2023/05/12 03:37:22;;;;;;;86.53;29.87;;;14.20;99.90;;;;;;4919166;29;20204;-79
2023/05/12 03:39:47;;;;;;;87.33;32.80;;;14.20;99.90;;;;;;4919130;29;20189;-79
2023/05/12 03:42:16;;;;;;;85.53;28.57;;;14.00;99.90;;;;;;4902263;29;20208;-80
2023/05/12 03:44:42;;;;;;;89.80;37.73;;;14.00;99.90;;;;;;4919343;29;20559;-80
2023/05/12 03:47:08;;;;;;;85.57;33.70;;;14.00;99.90;;;;;;4901899;29;20545;-80
2023/05/12 03:49:33;;;;;;;86.50;34.27;;;14.00;99.90;;;;;;4919328;29;20496;-79
2023/05/12 03:51:59;;;;;;;89.87;36.77;;;14.00;99.90;;;;;;4918947;29;20169;-79
2023/05/12 03:54:25;;;;;;;86.13;32.70;;;14.00;99.90;;;;;;4902251;29;20224;-80
2023/05/12 03:56:52;;;;;;;82.77;32.87;;;14.00;99.90;;;;;;4918795;29;20210;-80
2023/05/12 03:59:17;;;;;;;83.53;32.63;;;14.10;99.90;;;;;;4902050;29;20178;-80
2023/05/12 04:01:46;;;;;;;85.67;36.03;;;14.10;99.90;;;;;;4919035;29;20913;-80
2023/05/12 04:04:11;;;;;;;83.40;34.10;;;14.10;99.90;;;;;;4919006;29;20174;-80
2023/05/12 04:06:37;;;;;;;84.30;32.17;;;14.10;99.90;;;;;;4918556;29;20432;-80
2023/05/12 04:09:03;;;;;;;82.70;33.47;;;14.10;99.90;;;;;;4901950;29;20647;-80
2023/05/12 04:11:28;;;;;;;84.47;35.83;;;14.00;99.90;;;;;;4919151;29;20165;-80
2023/05/12 04:13:54;;;;;;;86.80;34.10;;;14.00;99.90;;;;;;4918968;29;20649;-80
2023/05/12 04:16:22;;;;;;;83.87;30.87;;;14.00;99.90;;;;;;4901850;29;20189;-80
2023/05/12 04:18:48;;;;;;;82.30;28.63;;;14.00;99.90;;;;;;4919140;29;20176;-80
2023/05/12 04:21:14;;;;;;;79.70;27.07;;;14.00;99.90;;;;;;4919156;29;20409;-80
2023/05/12 04:23:39;;;;;;;80.77;28.43;;;14.00;99.90;;;;;;4918774;29;20170;-79
2023/05/12 04:26:05;;;;;;;78.90;26.60;;;14.00;99.90;;;;;;4917882;29;20201;-79
2023/05/12 04:28:31;;;;;;;77.40;31.50;;;13.90;99.90;;;;;;4917862;29;20173;-80
2023/05/12 04:31:02;;;;;;;79.90;34.93;;;13.70;99.90;;;;;;4917997;29;20216;-80
2023/05/12 04:33:28;;;;;;;77.37;27.70;;;13.60;99.90;;;;;;4901368;29;20171;-79
2023/05/12 04:35:57;;;;;;;78.80;30.37;;;13.70;99.90;;;;;;4917769;29;20516;-80
2023/05/12 04:38:23;;;;;;;75.83;25.90;;;13.70;99.90;;;;;;4900633;29;20244;-80
2023/05/12 04:40:49;;;;;;;76.77;23.30;;;13.70;99.90;;;;;;4917720;29;20406;-80
2023/05/12 04:43:14;;;;;;;74.83;24.83;;;13.70;99.90;;;;;;4900689;29;20416;-80
2023/05/12 04:45:40;;;;;;;75.07;21.07;;;13.70;99.90;;;;;;4917618;29;20534;-80
2023/05/12 04:48:06;;;;;;;75.73;28.70;;;13.60;99.90;;;;;;4900655;29;20661;-80
2023/05/12 04:50:31;;;;;;;80.07;33.57;;;13.60;99.90;;;;;;4900572;29;20205;-80
2023/05/12 04:52:57;;;;;;;77.87;30.73;;;13.50;99.90;;;;;;4917523;29;20536;-80
2023/05/12 04:55:23;;;;;;;76.47;28.97;;;13.40;99.90;;;;;;4917819;29;20165;-80
2023/05/12 04:57:51;;;;;;;77.70;34.57;;;13.40;99.90;;;;;;4917527;29;20239;-80
2023/05/12 05:00:17;;;;;;;74.13;26.77;;;13.30;99.90;;;;;;4900485;29;20165;-80
2023/05/12 05:02:43;;;;;;;75.37;29.27;;;13.30;99.90;;;;;;4917481;29;20496;-80
2023/05/12 05:05:09;;;;;;;80.53;29.30;;;13.40;99.90;;;;;;4917917;29;20408;-80
2023/05/12 05:07:34;;;;;;;75.83;31.30;;;13.40;99.90;;;;;;4917348;29;20319;-80
2023/05/12 05:10:00;;;;;;;75.00;25.40;;;13.40;99.90;;;;;;4917613;29;20492;-80
2023/05/12 05:12:26;;;;;;;73.63;24.87;;;13.50;99.90;;;;;;4917581;29;20522;-80
2023/05/12 05:14:51;;;;;;;78.10;23.73;;;13.40;99.90;;;;;;4917365;29;20165;-80
2023/05/12 05:17:17;;;;;;;74.47;22.10;;;13.50;99.90;;;;;;4916638;29;20204;-80
2023/05/12 05:19:43;;;;;;;88.43;42.63;;;13.50;99.90;;;;;;4917596;29;20617;-80
2023/05/12 05:22:08;;;;;;;76.07;31.20;;;13.50;99.90;;;;;;4917493;29;20169;-80
2023/05/12 05:24:34;;;;;;;81.00;34.83;;;13.30;99.90;;;;;;4917381;29;20181;-81
2023/05/12 05:27:03;;;;;;;77.17;32.73;;;13.20;99.90;;;;;;4917537;29;20193;-81
2023/05/12 05:29:28;;;;;;;74.90;28.83;;;13.30;99.90;;;;;;4917440;29;20306;-81
2023/05/12 05:31:54;;;;;;;77.27;31.73;;;13.20;99.90;;;;;;4900503;29;20506;-81
2023/05/12 05:34:23;;;;;;;75.67;28.97;;;13.30;99.90;;;;;;4917241;29;20252;-81
2023/05/12 05:36:48;;;;;;;75.77;23.10;;;13.30;99.90;;;;;;4917121;29;20208;-81
2023/05/12 05:39:14;;;;;;;73.90;27.70;;;13.40;99.90;;;;;;4917771;29;20415;-81
2023/05/12 05:41:43;;;;;;;73.50;25.57;;;13.40;99.90;;;;;;4917248;29;20188;-81
2023/05/12 05:44:08;;;;;;;74.53;29.10;;;13.40;99.90;;;;;;4917135;29;20173;-81
2023/05/12 05:46:34;;;;;;;74.60;27.23;;;13.30;99.90;;;;;;4917134;29;20429;-81
2023/05/12 05:48:59;;;;;;;75.00;27.37;;;13.30;99.90;;;;;;4917483;29;20166;-81
2023/05/12 05:51:26;;;;;;;76.90;22.97;;;13.40;99.90;;;;;;4900189;29;20173;-80
2023/05/12 05:53:51;;;;;;;78.10;25.40;;;13.40;99.90;;;;;;4917168;29;20177;-81
2023/05/12 05:56:17;;;;;;;73.60;23.23;;;13.40;99.90;;;;;;4917116;29;20440;-81
2023/05/12 05:58:42;;;;;;;73.67;24.57;;;13.40;99.90;;;;;;4917014;29;20170;-81
2023/05/12 06:01:11;;;;;;;74.57;25.87;;;13.40;99.90;;;;;;4900091;29;20170;-81
2023/05/12 06:03:36;;;;;;;73.33;21.60;;;13.50;99.90;;;;;;4900114;29;20169;-81
2023/05/12 06:06:03;;;;;;;72.90;21.07;;;13.50;99.90;;;;;;4900256;29;20433;-81
2023/05/12 06:08:28;;;;;;;76.03;21.13;;;13.60;99.90;;;;;;4917097;29;20204;-81
2023/05/12 06:10:54;;;;;;;75.50;23.07;;;13.60;99.90;;;;;;4917198;29;20819;-81
2023/05/12 06:13:20;;;;;;;73.20;22.13;;;13.50;99.90;;;;;;4917207;29;20653;-81
2023/05/12 06:15:46;;;;;;;73.10;21.73;;;13.50;99.90;;;;;;4900155;29;20487;-81
2023/05/12 06:18:11;;;;;;;72.57;21.20;;;13.50;99.90;;;;;;4900579;29;20201;-81
2023/05/12 06:20:37;;;;;;;74.57;21.13;;;13.40;99.90;;;;;;4916888;29;20169;-81
2023/05/12 06:23:03;;;;;;;73.47;19.83;;;13.50;99.90;;;;;;4917139;29;20169;-81
2023/05/12 06:25:28;;;;;;;73.90;23.07;;;13.50;99.90;;;;;;4917152;29;20181;-81
2023/05/12 06:27:54;;;;;;;72.83;19.23;;;13.50;99.90;;;;;;4917185;29;20165;-81
2023/05/12 06:30:20;;;;;;;71.60;19.10;;;13.50;99.90;;;;;;4920245;29;20193;-81
2023/05/12 06:32:46;;;;;;;70.60;16.53;;;13.50;99.90;;;;;;4903560;29;20169;-81
2023/05/12 06:35:11;;;;;;;71.57;16.87;;;13.60;99.90;;;;;;4920846;29;20401;-81
2023/05/12 06:37:37;;;;;;;76.07;16.73;;;13.70;99.90;;;;;;4920730;29;20193;-81
2023/05/12 06:40:03;;;;;;;77.13;17.77;;;13.70;99.90;;;;;;4903543;29;20169;-81
2023/05/12 06:42:29;;;;;;;72.33;17.00;;;13.70;99.90;;;;;;4920476;29;20169;-81
2023/05/12 06:44:55;;;;;;;74.20;14.50;;;13.80;99.90;;;;;;4920176;29;20460;-81
2023/05/12 06:47:20;;;;;;;72.87;13.83;;;13.90;99.90;;;;;;4903347;29;20268;-81
2023/05/12 06:49:46;;;;;;;73.17;15.03;;;13.80;99.90;;;;;;4920340;29;20204;-81
2023/05/12 06:52:11;;;;;;;71.10;13.67;;;13.90;99.90;;;;;;4920571;29;20701;-81
2023/05/12 06:54:37;;;;;;;71.63;11.70;;;13.90;99.90;;;;;;4920242;29;20510;-81
2023/05/12 06:57:04;;;;;;;73.20;11.63;;;13.90;99.90;;;;;;4902813;29;20204;-81
2023/05/12 06:59:29;;;;;;;70.37;11.77;;;14.00;99.90;;;;;;4919914;29;20166;-81
2023/05/12 07:01:58;;;;;;;69.27;11.77;;;13.90;99.90;;;;;;4920005;29;20607;-81
2023/05/12 07:04:25;;;;;;;70.10;13.10;;;14.00;99.90;;;;;;4920046;29;20442;-81
2023/05/12 07:06:51;;;;;;;71.20;12.73;;;14.10;99.90;;;;;;4902591;29;20441;-81
2023/05/12 07:09:17;;;;;;;70.90;12.57;;;14.10;99.90;;;;;;4919778;29;20413;-81
2023/05/12 07:11:43;;;;;;;70.87;13.83;;;14.20;99.90;;;;;;4902908;29;20309;-81
2023/05/12 07:14:08;;;;;;;70.80;11.97;;;14.30;99.90;;;;;;4919835;29;20433;-81
2023/05/12 07:16:34;;;;;;;73.30;12.07;;;14.40;99.90;;;;;;4919666;29;20197;-81
2023/05/12 07:19:00;;;;;;;69.17;12.33;;;14.40;99.90;;;;;;4902521;29;20180;-81
2023/05/12 07:21:26;;;;;;;79.83;13.27;;;14.40;99.90;;;;;;4919603;29;20188;-81
2023/05/12 07:23:52;;;;;;;70.87;17.30;;;14.40;99.90;;;;;;4919664;29;20213;-82
2023/05/12 07:26:18;;;;;;;71.07;16.27;;;14.50;99.90;;;;;;4919481;29;20513;-81
2023/05/12 07:28:43;;;;;;;71.13;17.93;;;14.50;99.90;;;;;;4902418;29;20418;-81
2023/05/12 07:31:09;;;;;;;75.33;21.97;;;14.60;99.90;;;;;;4902357;29;20412;-81
2023/05/12 07:33:35;;;;;;;75.17;27.57;;;14.80;99.90;;;;;;4919815;29;20169;-82
2023/05/12 07:36:03;;;;;;;74.50;27.77;;;14.80;99.90;;;;;;4919921;29;20716;-81
2023/05/12 07:38:29;;;;;;;74.57;29.03;;;14.70;99.90;;;;;;4919262;29;20508;-81
2023/05/12 07:40:54;;;;;;;75.70;29.33;;;14.70;99.90;;;;;;4919091;29;20496;-81
2023/05/12 07:43:20;;;;;;;75.53;29.80;;;14.60;99.90;;;;;;4920420;29;20177;-82
2023/05/12 07:45:48;;;;;;;74.70;28.87;;;14.60;99.90;;;;;;4903703;29;20212;-82
2023/05/12 07:48:14;;;;;;;74.60;27.23;;;14.80;99.90;;;;;;4921570;29;20717;-82
2023/05/12 07:50:42;;;;;;;76.87;32.37;;;14.80;99.90;;;;;;4920652;29;20406;-81
2023/05/12 07:53:08;;;;;;;76.97;29.43;;;14.90;99.90;;;;;;4921436;29;20644;-82
2023/05/12 07:55:37;;;;;;;77.57;36.57;;;14.90;99.90;;;;;;4920680;29;20428;-81
2023/05/12 07:58:02;;;;;;;75.97;29.60;;;15.00;99.90;;;;;;4920253;29;20196;-81
2023/05/12 08:00:31;;;;;;;74.23;27.63;;;15.00;99.90;;;;;;4920654;29;20414;-81
2023/05/12 08:02:57;;;;;;;76.87;31.37;;;15.20;99.90;;;;;;4921247;29;20166;-82
2023/05/12 08:05:22;;;;;;;74.37;27.43;;;15.10;99.90;;;;;;4920472;29;20409;-82
2023/05/12 08:07:48;;;;;;;77.07;30.53;;;15.20;99.90;;;;;;4919957;29;20248;-81
2023/05/12 08:10:14;;;;;;;75.90;32.43;;;15.20;99.90;;;;;;4903368;29;20169;-82
2023/05/12 08:12:40;;;;;;;77.90;32.10;;;15.30;99.90;;;;;;4903393;29;20166;-81
2023/05/12 08:15:07;;;;;;;70.70;14.30;;;15.40;99.90;;;;;;4901603;29;20197;-82
2023/05/12 08:17:35;;;;;;;69.50;13.40;;;15.40;99.90;;;;;;4918492;29;21047;-82
2023/05/12 08:20:05;;;;;;;67.07;9.03;;;15.40;99.90;;;;;;4918569;29;20514;-82
2023/05/12 08:22:31;;;;;;;70.20;11.73;;;15.60;99.90;;;;;;4919758;29;20405;-82
2023/05/12 08:24:57;;;;;;;67.00;5.97;;;15.70;99.90;;;;;;4919782;29;20793;-82
2023/05/12 08:27:22;;;;;;;66.77;4.90;;;15.70;99.90;;;;;;4920047;29;20481;-82
2023/05/12 08:29:48;;;;;;;66.20;4.73;;;15.70;99.90;;;;;;4920441;29;20245;-82
2023/05/12 08:32:14;;;;;;;66.53;4.30;;;15.60;99.90;;;;;;4903638;29;20590;-82
2023/05/12 08:34:39;;;;;;;66.27;4.90;;;15.50;99.90;;;;;;4921370;29;20249;-82
2023/05/12 08:37:05;;;;;;;67.30;4.93;;;15.50;99.90;;;;;;4921062;29;20193;-83
2023/05/12 08:39:32;;;;;;;65.93;4.67;;;15.60;99.90;;;;;;4903980;29;20210;-83
2023/05/12 08:41:58;;;;;;;66.30;4.77;;;15.70;99.90;;;;;;4904560;29;20996;-83
2023/05/12 08:44:24;;;;;;;67.67;4.67;;;15.60;99.90;;;;;;4920799;29;20404;-83
2023/05/12 08:46:53;;;;;;;66.60;4.57;;;15.70;99.90;;;;;;4920510;29;20254;-83
2023/05/12 08:49:21;;;;;;;66.50;4.87;;;15.80;99.90;;;;;;4921169;29;20464;-83
2023/05/12 08:51:47;;;;;;;66.90;5.90;;;16.00;99.90;;;;;;4918928;29;20418;-82
2023/05/12 08:54:14;;;;;;;65.17;4.47;;;16.30;99.90;;;;;;4918863;29;20435;-82
2023/05/12 08:56:41;;;;;;;66.20;4.63;;;16.40;99.90;;;;;;4903079;29;20463;-83
2023/05/12 08:59:08;;;;;;;73.90;4.33;;;16.50;99.90;;;;;;4904719;29;20424;-83
2023/05/12 09:01:41;;;;;;;65.80;4.70;;;16.60;99.90;;;;;;4904401;29;20415;-83
2023/05/12 09:04:19;;;;;;;66.27;4.50;;;16.60;99.90;;;;;;4921668;29;20405;-83
2023/05/12 09:06:48;;;;;;;66.67;4.87;;;16.50;99.90;;;;;;4920763;29;20941;-82
2023/05/12 09:09:19;;;;;;;65.63;5.20;;;16.60;99.90;;;;;;4921023;29;20501;-83
2023/05/12 09:11:47;;;;;;;65.47;4.47;;;16.60;99.90;;;;;;4921690;29;20399;-83
2023/05/12 09:14:56;;;;;;;66.00;6.40;;;16.80;99.90;;;;;;4921937;29;20463;-83
2023/05/12 09:17:22;;;;;;;66.57;7.27;;;16.70;99.90;;;;;;4846761;29;20564;-83
2023/05/12 09:19:48;;;;;;;66.60;6.43;;;16.70;99.90;;;;;;4863164;29;20927;-83
2023/05/12 09:22:15;;;;;;;65.70;6.83;;;16.90;99.90;;;;;;4962619;23;20363;-83
2023/05/12 09:24:51;;;;;;;66.17;5.83;;;17.00;99.90;;;;;;4970755;23;20227;-86
2023/05/12 09:27:29;;;;;;;64.67;5.00;;;17.10;99.90;;;;;;4901088;29;20804;-86
2023/05/12 09:29:55;;;;;;;65.40;5.80;;;17.30;99.90;;;;;;4917659;29;20403;-85
2023/05/12 09:32:34;;;;;;;65.10;6.20;;;17.30;99.90;;;;;;4917215;29;20419;-86
2023/05/12 09:35:10;;;;;;;72.73;7.07;;;17.30;99.90;;;;;;4917189;29;20393;-86
2023/05/12 09:37:36;;;;;;;65.77;5.60;;;17.20;99.90;;;;;;4900453;29;20464;-86
2023/05/12 09:40:06;;;;;;;66.87;5.80;;;17.20;99.90;;;;;;4917005;29;20911;-86
2023/05/12 09:42:41;;;;;;;66.10;6.00;;;17.60;99.90;;;;;;4916969;29;20404;-87
2023/05/12 09:45:12;;;;;;;65.43;5.93;;;18.00;99.90;;;;;;4900000;29;20416;-87
2023/05/12 09:52:03;;;;;;;65.80;6.43;;;18.60;62.30;;;;;;4858694;29;20528;-86
2023/05/12 10:02:05;;;;;;;;;;;;;;;;;;;;;
2023/05/12 10:05:05;;;;;;;65.70;5.37;;;18.00;40.40;;;;;;5131131;28;20944;-86
2023/05/12 10:08:00;;;;;;;66.87;7.30;;;18.20;30.50;;;;;;5027502;28;20444;-86
2023/05/12 10:10:55;;;;;;;66.60;5.60;;;18.30;26.10;;;;;;5129185;28;20403;-87
2023/05/12 10:13:46;;;;;;;66.50;6.10;;;18.50;36.90;;;;;;5130986;28;20496;-87
2023/05/12 10:19:39;;;;;;;67.53;11.07;;;18.80;19.10;;;;;;5092596;28;20399;-86
2023/05/12 10:22:35;;;;;;;67.67;11.43;;;18.60;7.50;;;;;;5112126;28;20412;-86
2023/05/12 10:25:18;;;;;;;68.97;8.00;;;18.70;1.30;;;;;;5131087;28;20402;-87
2023/05/12 10:28:18;;;;;;;;;;;;;;;;;;;;;
2023/05/12 10:31:18;;;;;;;66.70;6.83;;;18.70;1.00;;;;;;5127120;28;20495;-86
2023/05/12 10:33:58;;;;;;;67.03;6.60;;;18.70;1.00;;;;;;5130031;28;20942;-86
2023/05/12 10:37:15;;;;;;;69.40;5.80;;;18.70;3.00;;;;;;5130396;22;20492;-87
2023/05/12 10:39:52;;;;;;;66.17;6.00;;;18.80;1.00;;;;;;5008142;28;20407;-86
2023/05/12 10:42:30;;;;;;;66.50;5.50;;;19.00;1.00;;;;;;5008134;28;20423;-86
2023/05/12 10:44:59;;;;;;;65.47;4.17;;;19.40;3.00;;;;;;4991798;28;20410;-86
2023/05/12 10:47:37;;;;;;;66.30;4.40;;;19.50;1.00;;;;;;5005642;28;20432;-87
2023/05/12 10:50:31;;;;;;;65.37;4.23;;;19.30;1.00;;;;;;5011319;28;20499;-86
2023/05/12 10:53:22;;;;;;;;;;;;;;;;;;;;;
2023/05/12 10:55:55;;;;;;;68.60;4.20;;;19.10;1.00;;;;;;5027155;28;20436;-87
2023/05/12 10:58:29;;;;;;;66.67;4.10;;;19.30;1.00;;;;;;5027475;28;20377;-86
2023/05/12 11:01:08;;;;;;;68.40;5.50;;;19.30;1.00;;;;;;5027468;28;20447;-86
2023/05/12 11:03:42;;;;;;;66.07;4.63;;;19.70;2.90;;;;;;5097030;28;20419;-87
2023/05/12 11:06:45;;;;;;;66.40;5.20;;;20.20;1.00;;;;;;5116205;28;20452;-86
2023/05/12 11:09:17;;;;;;;70.37;6.30;;;20.40;1.00;;;;;;5014026;28;20404;-86
2023/05/12 11:12:13;;;;;;;69.20;7.30;;;20.90;1.00;;;;;;4998077;28;20417;-86
2023/05/12 11:17:51;;;;;;;72.57;8.10;;;20.70;1.00;;;;;;5115883;28;20429;-86
2023/05/12 11:20:51;;;;;;;67.37;6.03;;;20.80;1.00;;;;;;5100651;28;20775;-86
2023/05/12 11:23:36;;;;;;;66.70;7.40;;;20.20;1.00;;;;;;5116220;28;20953;-86
2023/05/12 11:27:07;;;;;;;;;;;;;;;;;;;;;
2023/05/12 11:33:59;;;;;;;;;;;;;;;;;;;;;
2023/05/12 11:37:21;;;;;;;66.20;4.50;;;18.60;9.80;;;;;;5107956;28;20444;-87
2023/05/12 11:40:18;;;;;;;65.37;3.97;;;18.50;22.60;;;;;;5116407;28;20412;-87
2023/05/12 11:43:09;;;;;;;64.70;3.80;;;18.30;15.60;;;;;;5115859;28;20424;-87
2023/05/12 11:46:18;;;;;;;;;;;;;;;;;;;;;
2023/05/12 11:49:03;;;;;;;67.40;4.27;;;18.50;7.60;;;;;;5116244;28;20431;-88
2023/05/12 11:52:10;;;;;;;65.67;3.97;;;18.80;1.00;;;;;;5115744;28;20412;-87
2023/05/12 11:58:42;;;;;;;65.60;3.97;;;18.90;1.00;;;;;;5061571;22;20494;-87
2023/05/12 12:04:58;;;;;;;66.27;4.83;;;19.70;1.00;;;;;;4994717;28;20421;-87
2023/05/12 12:08:26;;;;;;;68.00;5.93;;;20.20;1.00;;;;;;5071419;28;20467;-87
2023/05/12 12:14:16;;;;;;;66.50;5.97;;;20.90;1.00;;;;;;4974783;28;20892;-87
2023/05/12 12:17:16;;;;;;;;;;;;;;;;;;;;;
2023/05/12 12:19:50;;;;;;;67.20;4.87;;;20.80;1.00;;;;;;5054375;28;20403;-86
2023/05/12 12:22:15;;;;;;;68.07;4.30;;;20.80;1.00;;;;;;5036664;28;20764;-86
2023/05/12 12:25:02;;;;;;;66.83;4.27;;;20.70;1.00;;;;;;5036603;28;20404;-87
2023/05/12 12:27:27;;;;;;;66.77;4.80;;;20.50;1.00;;;;;;5005698;28;20189;-86
2023/05/12 12:29:53;;;;;;;66.90;6.53;;;20.60;1.00;;;;;;5016642;28;20417;-87
2023/05/12 12:32:19;;;;;;;66.60;4.33;;;21.00;1.00;;;;;;5017171;28;20177;-87
2023/05/12 12:34:53;;;;;;;68.63;4.20;;;21.20;1.00;;;;;;5016868;28;20203;-87
2023/05/12 12:37:25;;;;;;;67.23;5.47;;;21.10;1.00;;;;;;5016729;28;20188;-87
2023/05/12 12:39:50;;;;;;;67.03;5.00;;;21.20;1.00;;;;;;5017111;28;20494;-86
2023/05/12 12:42:16;;;;;;;67.30;4.73;;;21.00;1.00;;;;;;5034129;28;20431;-86
2023/05/12 12:44:44;;;;;;;67.00;4.67;;;20.90;1.00;;;;;;5017270;28;20645;-87
2023/05/12 12:47:10;;;;;;;66.97;4.60;;;21.00;1.00;;;;;;5016303;28;20203;-86
2023/05/12 12:49:36;;;;;;;67.57;5.00;;;20.90;1.00;;;;;;5034278;28;21047;-87
2023/05/12 12:52:02;;;;;;;67.93;5.13;;;20.70;1.00;;;;;;5016299;28;20179;-87
2023/05/12 12:54:28;;;;;;;68.30;4.37;;;20.70;1.00;;;;;;5033889;28;20785;-86
2023/05/12 12:56:54;;;;;;;67.90;4.50;;;20.70;1.00;;;;;;5016008;28;20183;-87
2023/05/12 12:59:20;;;;;;;73.20;4.40;;;21.00;1.00;;;;;;5033878;28;20408;-87
2023/05/12 13:01:46;;;;;;;68.13;5.60;;;21.20;1.00;;;;;;5016181;28;20921;-87
2023/05/12 13:04:11;;;;;;;67.00;5.53;;;21.30;1.00;;;;;;5016151;28;20176;-87
2023/05/12 13:06:38;;;;;;;67.27;5.57;;;21.30;1.00;;;;;;5015878;28;20466;-87
2023/05/12 13:09:04;;;;;;;68.33;6.10;;;21.20;1.00;;;;;;5033768;28;20198;-87
2023/05/12 13:11:32;;;;;;;70.80;6.17;;;21.20;1.00;;;;;;5015796;28;20403;-86
2023/05/12 13:14:03;;;;;;;69.40;5.70;;;21.30;1.00;;;;;;5016143;28;20504;-86
2023/05/12 13:16:38;;;;;;;69.00;6.00;;;21.20;1.00;;;;;;5015690;28;20497;-86
2023/05/12 13:19:04;;;;;;;67.60;5.83;;;21.10;1.00;;;;;;5015888;28;20777;-87
2023/05/12 13:21:33;;;;;;;70.80;5.40;;;21.30;1.00;;;;;;5033778;28;20485;-86
2023/05/12 13:24:02;;;;;;;68.50;6.53;;;21.40;1.00;;;;;;5033521;28;20635;-86
2023/05/12 13:26:31;;;;;;;67.57;5.40;;;21.60;1.00;;;;;;5015548;28;20477;-87